Canberra International Airport
YSCB : now visible

Airfield :











YOU CAN JOIN US ON...

 
LOGIN :

Register | Disclaimer

   EN    FR    IT 

 









Legend :    VFR   Marginal VFR   IFR   Intensive IFR   Very Intensive IFR
Visi :
Ceiling :
>= 8 km
>= 3000ft
5 to 8 km
1000 to 3000 ft
1500m to 5 km
500 to 1000 ft
800 to 1500m
200 to 500 ft
< 800m
< 200 ft
Symbols :   Thunderstorms  Fog  Heavy snow  Heavy precipitations  Wind > 20 kt






- Airport Elevation : 1886 ft
- IATA code : CBR


YSCB - Canberra International

CURRENT METAR :
  • 210100Z AUTO 08009KT 9999 // OVC041 20/13 Q1030

EXPIRED METARs :
  • 210030Z AUTO 11011KT 9999 // BKN028 OVC039 19/12 Q1031
  • 210000Z AUTO 11008KT 9999 // SCT032 OVC039 19/12 Q1031
  • 202330Z AUTO 12007KT 9999 // BKN036 OVC042 18/11 Q1031
  • 202300Z AUTO 12008KT 9999 // BKN031 OVC039 18/11 Q1031
  • 202230Z AUTO 11009KT 9999 // SCT035 OVC041 18/10 Q1031

TAF TAF YSCB
Valid from the 21 at 01:00 until the 22 at 00:00 UTC


210003Z 2101/2200 10010KT 9999 BKN040
FM210200 09010KT CAVOK
FM211000 12005KT 9999 SCT020 BKN030
YMMM FIR / Oceania



MET'MAP, your aeronautical weather chart ! - Copyright ORBIFLY December 2007 - Disclaimer

ORBIFLY MET'MAP TEAM :

Programming & Development : Alexandra Zaïnal
Concept & original design : Baudouin d'Aumeries
Assistance for programming : Marc-Olivier Méhu
Technical & hardware support : Manuel Goepfert

Contact : metmap@orbifly.com




SOURCES & CREDITS :

   NOAA       Earth
Advisory